Time;durP1;ratioP1;P1;durP2;ratioP2;P2;SDS_P1;SDS_P2;PMS_P1;PMS_P2;Temp;Humidity;BMP_temperature;BMP_pressure;BME280_temperature;BME280_humidity;BME280_pressure;Samples;Min_cycle;Max_cycle;Signal;HPM_P1;HPM_P2
2023/05/19 00:01:07;;;;;;;10.68;4.60;;;6.70;88.30;;;;;;5015115;28;20196;-71
2023/05/19 00:03:36;;;;;;;9.68;4.40;;;6.80;88.80;;;;;;5016531;28;20540;-71
2023/05/19 00:06:03;;;;;;;7.97;4.20;;;6.80;88.80;;;;;;5017287;28;20034;-71
2023/05/19 00:08:33;;;;;;;13.35;4.57;;;6.80;88.80;;;;;;5012088;28;20041;-71
2023/05/19 00:11:00;;;;;;;12.77;4.00;;;6.80;89.40;;;;;;4994567;28;20470;-71
2023/05/19 00:13:26;;;;;;;9.00;4.22;;;6.80;88.80;;;;;;5011910;28;20049;-71
2023/05/19 00:15:52;;;;;;;13.55;4.90;;;6.80;89.00;;;;;;5010634;28;20116;-71
2023/05/19 00:18:19;;;;;;;8.68;4.55;;;6.70;90.00;;;;;;5016532;28;20050;-71
2023/05/19 00:20:45;;;;;;;11.45;4.38;;;6.70;89.60;;;;;;5031012;28;20120;-71
2023/05/19 00:23:11;;;;;;;9.40;5.05;;;6.70;90.10;;;;;;5013755;28;20128;-71
2023/05/19 00:25:36;;;;;;;13.82;4.60;;;6.70;89.90;;;;;;5011548;28;20057;-71
2023/05/19 00:28:02;;;;;;;12.93;4.50;;;6.70;90.00;;;;;;5009635;28;20045;-71
2023/05/19 00:30:28;;;;;;;13.65;5.53;;;6.60;89.70;;;;;;5011519;28;20030;-70
2023/05/19 00:32:54;;;;;;;11.80;5.00;;;6.60;89.90;;;;;;5028239;28;20042;-71
2023/05/19 00:35:20;;;;;;;15.20;5.20;;;6.60;90.00;;;;;;5019282;28;20041;-71
2023/05/19 00:37:46;;;;;;;11.60;4.88;;;6.60;90.00;;;;;;5011798;28;20072;-71
2023/05/19 00:40:12;;;;;;;9.55;4.53;;;6.60;90.10;;;;;;5013218;28;20046;-71
2023/05/19 00:42:37;;;;;;;11.00;4.40;;;6.60;90.20;;;;;;5010934;28;20042;-71
2023/05/19 00:45:04;;;;;;;10.18;4.45;;;6.70;90.40;;;;;;5013884;28;20593;-71
2023/05/19 00:47:30;;;;;;;13.60;5.55;;;6.70;90.90;;;;;;5008371;28;20045;-71
2023/05/19 00:49:55;;;;;;;10.82;4.65;;;6.70;91.40;;;;;;5015954;28;20037;-72
2023/05/19 00:52:21;;;;;;;17.38;5.38;;;6.60;90.90;;;;;;5016169;28;20470;-71
2023/05/19 00:54:48;;;;;;;11.43;4.63;;;6.60;90.80;;;;;;5016068;28;20045;-70
2023/05/19 00:57:13;;;;;;;11.50;4.80;;;6.60;90.80;;;;;;5025074;28;20052;-71
2023/05/19 00:59:39;;;;;;;10.98;4.90;;;6.60;90.60;;;;;;5013567;28;20029;-71
2023/05/19 01:02:05;;;;;;;10.85;5.18;;;6.50;90.60;;;;;;5009705;28;20052;-71
2023/05/19 01:04:34;;;;;;;12.18;5.03;;;6.50;90.80;;;;;;5015981;28;20052;-71
2023/05/19 01:07:00;;;;;;;16.15;4.95;;;6.50;91.00;;;;;;5011580;28;20087;-71
2023/05/19 01:09:26;;;;;;;14.77;4.47;;;6.50;91.50;;;;;;5015619;28;20132;-71
2023/05/19 01:11:52;;;;;;;13.35;4.20;;;6.50;91.40;;;;;;4999529;28;20038;-71
2023/05/19 01:14:18;;;;;;;9.35;4.00;;;6.50;91.50;;;;;;5011504;28;20169;-71
2023/05/19 01:17:04;;;;;;;12.88;4.30;;;6.50;91.30;;;;;;5009254;28;20053;-72
2023/05/19 01:20:00;;;;;;;14.15;4.30;;;6.40;91.50;;;;;;5009038;28;20141;-71
2023/05/19 01:22:56;;;;;;;10.85;4.00;;;6.40;91.70;;;;;;5028519;28;20038;-71
2023/05/19 01:25:43;;;;;;;10.95;4.53;;;6.40;91.80;;;;;;5012491;28;20050;-71
2023/05/19 01:28:42;;;;;;;11.32;4.13;;;6.30;91.70;;;;;;5025232;28;20046;-71
2023/05/19 01:31:10;;;;;;;14.93;5.32;;;6.30;91.90;;;;;;5008749;28;20046;-71
2023/05/19 01:33:38;;;;;;;11.95;5.45;;;6.30;91.50;;;;;;5013304;28;20120;-72
2023/05/19 01:36:07;;;;;;;11.65;4.00;;;6.30;91.30;;;;;;5042229;28;20354;-72
2023/05/19 01:38:35;;;;;;;13.27;4.57;;;6.30;91.50;;;;;;5011567;28;20044;-72
2023/05/19 01:41:03;;;;;;;12.13;4.80;;;6.30;91.90;;;;;;5014462;28;20421;-72
2023/05/19 01:43:29;;;;;;;14.20;4.70;;;6.30;92.00;;;;;;5019649;28;20056;-71
2023/05/19 01:45:57;;;;;;;12.00;4.18;;;6.20;91.70;;;;;;5022063;28;20056;-72
2023/05/19 01:48:23;;;;;;;10.40;4.20;;;6.20;91.70;;;;;;5012286;28;20042;-71
2023/05/19 01:50:49;;;;;;;8.48;4.53;;;6.20;91.70;;;;;;5021524;28;20163;-72
2023/05/19 01:53:14;;;;;;;9.13;4.72;;;6.10;91.60;;;;;;5018127;28;20499;-72
2023/05/19 01:55:44;;;;;;;14.73;4.72;;;6.10;91.60;;;;;;5029008;28;20030;-70
2023/05/19 01:58:37;;;;;;;7.63;3.83;;;6.10;92.00;;;;;;5028534;28;20040;-72
2023/05/19 02:01:34;;;;;;;12.30;4.25;;;6.10;92.70;;;;;;5024368;28;20128;-71
2023/05/19 02:04:11;;;;;;;10.52;3.72;;;6.10;92.40;;;;;;5025504;28;20045;-71
2023/05/19 02:06:41;;;;;;;10.27;4.38;;;6.10;92.30;;;;;;5024804;28;20441;-71
2023/05/19 02:09:14;;;;;;;10.05;3.83;;;6.00;92.00;;;;;;5024501;28;20048;-72
2023/05/19 02:11:43;;;;;;;10.43;4.28;;;6.00;92.00;;;;;;5005414;28;20063;-71
2023/05/19 02:14:19;;;;;;;9.63;4.43;;;6.00;92.00;;;;;;5023037;28;20532;-71
2023/05/19 02:16:47;;;;;;;12.48;4.47;;;6.10;92.30;;;;;;5014022;28;20587;-71
2023/05/19 02:19:26;;;;;;;11.10;4.68;;;6.00;92.00;;;;;;5024436;28;20041;-71
2023/05/19 02:21:52;;;;;;;12.85;4.97;;;6.00;92.60;;;;;;5016386;28;20107;-71
2023/05/19 02:24:18;;;;;;;10.23;4.28;;;6.00;92.20;;;;;;5003686;28;22464;-72
2023/05/19 02:26:45;;;;;;;12.15;4.18;;;6.00;92.60;;;;;;5010190;28;20119;-72
2023/05/19 02:29:10;;;;;;;10.38;4.40;;;6.00;92.50;;;;;;5023377;28;20080;-72
2023/05/19 02:31:36;;;;;;;11.93;4.35;;;6.00;92.60;;;;;;5001699;28;20535;-71
2023/05/19 02:34:02;;;;;;;11.60;4.82;;;6.00;92.60;;;;;;5025979;28;20033;-72
2023/05/19 02:36:27;;;;;;;14.30;4.93;;;6.00;92.70;;;;;;5019073;28;20576;-72
2023/05/19 02:38:53;;;;;;;10.02;4.32;;;6.00;92.80;;;;;;5014727;28;20505;-72
2023/05/19 02:41:18;;;;;;;10.80;4.32;;;6.00;92.70;;;;;;5016271;28;20307;-71
2023/05/19 02:43:44;;;;;;;10.68;4.53;;;5.90;92.60;;;;;;5018685;28;20552;-71
2023/05/19 02:46:10;;;;;;;9.95;4.40;;;5.90;92.60;;;;;;5023519;28;20068;-72
2023/05/19 02:48:35;;;;;;;11.00;4.22;;;5.90;92.70;;;;;;4999589;28;20033;-71
2023/05/19 02:51:01;;;;;;;12.75;5.07;;;5.90;92.80;;;;;;5012481;28;20049;-71
2023/05/19 02:53:26;;;;;;;10.02;4.32;;;5.90;92.80;;;;;;5016030;28;20048;-71
2023/05/19 02:55:52;;;;;;;14.95;5.00;;;5.90;92.80;;;;;;5023211;28;20637;-72
2023/05/19 02:58:19;;;;;;;13.63;5.03;;;5.90;92.80;;;;;;5011628;28;20042;-72
2023/05/19 03:00:45;;;;;;;12.07;5.85;;;5.80;92.80;;;;;;5010308;28;20478;-71
2023/05/19 03:03:10;;;;;;;15.43;4.78;;;5.90;93.10;;;;;;4995749;28;20040;-72
2023/05/19 03:05:36;;;;;;;11.65;4.85;;;5.80;93.00;;;;;;5028203;28;20536;-72
2023/05/19 03:08:02;;;;;;;10.95;4.80;;;5.90;93.20;;;;;;5028989;28;20041;-72
2023/05/19 03:10:27;;;;;;;11.65;5.68;;;5.90;93.50;;;;;;4998879;28;20087;-71
2023/05/19 03:12:53;;;;;;;13.13;5.45;;;5.80;93.20;;;;;;5025888;28;20124;-72
2023/05/19 03:15:21;;;;;;;10.00;4.80;;;5.80;93.10;;;;;;5018053;28;20111;-72
2023/05/19 03:17:47;;;;;;;11.70;4.88;;;5.80;93.10;;;;;;5023263;28;20048;-72
2023/05/19 03:20:14;;;;;;;14.98;5.38;;;5.70;93.10;;;;;;5018008;28;20045;-72
2023/05/19 03:22:40;;;;;;;10.57;4.82;;;5.70;93.10;;;;;;5012620;28;20074;-72
2023/05/19 03:25:06;;;;;;;12.25;4.70;;;5.70;93.30;;;;;;5032033;28;20508;-72
2023/05/19 03:27:32;;;;;;;12.38;4.30;;;5.70;93.30;;;;;;5015427;28;20072;-71
2023/05/19 03:29:57;;;;;;;10.70;4.85;;;5.70;93.30;;;;;;5017953;28;20397;-71
2023/05/19 03:32:23;;;;;;;7.68;3.60;;;5.70;93.30;;;;;;5023230;28;20579;-71
2023/05/19 03:34:48;;;;;;;6.82;3.50;;;5.70;93.20;;;;;;5013066;28;20049;-72
2023/05/19 03:37:14;;;;;;;11.05;3.88;;;5.70;93.20;;;;;;5016430;28;20125;-72
2023/05/19 03:39:39;;;;;;;8.05;3.88;;;5.60;93.10;;;;;;5010456;28;20038;-71
2023/05/19 03:42:05;;;;;;;12.18;4.28;;;5.50;93.00;;;;;;5015560;28;20408;-72
2023/05/19 03:44:30;;;;;;;11.80;4.10;;;5.50;93.00;;;;;;5015716;28;20048;-72
2023/05/19 03:46:56;;;;;;;10.52;4.15;;;5.60;93.50;;;;;;5021264;28;20099;-72
2023/05/19 03:49:22;;;;;;;15.63;5.05;;;5.60;93.40;;;;;;5004478;28;20037;-71
2023/05/19 03:51:47;;;;;;;9.85;4.50;;;5.60;93.50;;;;;;5012145;28;20073;-71
2023/05/19 03:54:13;;;;;;;8.68;4.43;;;5.50;93.30;;;;;;5014960;28;20065;-72
2023/05/19 03:56:39;;;;;;;15.20;4.35;;;5.50;93.30;;;;;;5018819;28;20041;-71
2023/05/19 03:59:06;;;;;;;12.23;4.90;;;5.60;93.60;;;;;;5011274;28;20048;-72
2023/05/19 04:01:32;;;;;;;9.43;5.05;;;5.60;93.60;;;;;;5020260;28;20132;-71
2023/05/19 04:03:57;;;;;;;9.95;5.03;;;5.70;94.70;;;;;;5011794;28;20128;-71
2023/05/19 04:06:23;;;;;;;8.02;4.18;;;5.70;93.90;;;;;;4999695;28;20091;-72
2023/05/19 04:08:48;;;;;;;9.23;4.82;;;5.70;93.80;;;;;;5012091;28;20117;-71
2023/05/19 04:11:14;;;;;;;9.95;4.03;;;5.70;93.80;;;;;;5004515;28;20041;-72
2023/05/19 04:13:40;;;;;;;8.00;4.15;;;5.80;93.80;;;;;;5031841;28;20042;-71
2023/05/19 04:16:06;;;;;;;10.13;3.90;;;5.80;93.80;;;;;;5020376;28;20045;-72
2023/05/19 04:18:31;;;;;;;8.52;4.47;;;5.80;93.80;;;;;;5026660;28;20072;-72
2023/05/19 04:20:57;;;;;;;11.60;4.15;;;5.80;93.80;;;;;;5020179;28;20066;-72
2023/05/19 04:23:23;;;;;;;8.85;3.90;;;5.90;93.90;;;;;;5014340;28;20567;-71
2023/05/19 04:25:48;;;;;;;9.15;3.58;;;5.90;93.90;;;;;;5015857;28;20386;-72
2023/05/19 04:28:14;;;;;;;6.40;3.10;;;5.90;93.90;;;;;;5018060;28;20485;-72
2023/05/19 04:30:41;;;;;;;8.30;3.47;;;6.00;93.90;;;;;;4994643;28;20105;-71
2023/05/19 04:33:08;;;;;;;6.05;3.47;;;6.00;94.20;;;;;;5006335;28;20045;-72
2023/05/19 04:35:33;;;;;;;6.85;3.22;;;6.00;93.90;;;;;;5023769;28;20046;-72
2023/05/19 04:38:00;;;;;;;6.60;3.20;;;6.10;94.00;;;;;;5015619;28;20044;-72
2023/05/19 04:40:26;;;;;;;9.07;4.25;;;6.10;94.30;;;;;;5012054;28;20061;-72
2023/05/19 04:42:52;;;;;;;8.95;3.80;;;6.20;94.30;;;;;;5020630;28;20053;-72
2023/05/19 04:45:18;;;;;;;7.20;3.38;;;6.20;94.20;;;;;;5012925;28;20049;-72
2023/05/19 04:47:46;;;;;;;9.00;4.68;;;6.30;94.40;;;;;;5019572;28;20484;-71
2023/05/19 04:50:13;;;;;;;10.85;4.03;;;6.40;94.40;;;;;;5020444;28;20094;-73
2023/05/19 04:52:41;;;;;;;12.32;5.00;;;6.50;94.40;;;;;;5023644;28;20076;-72
2023/05/19 04:55:10;;;;;;;12.02;4.68;;;6.60;94.60;;;;;;5017400;28;20074;-71
2023/05/19 04:57:39;;;;;;;12.60;4.88;;;6.70;94.50;;;;;;5030459;28;20080;-72
2023/05/19 05:00:07;;;;;;;10.48;4.50;;;6.80;94.60;;;;;;5010861;28;20431;-72
2023/05/19 05:02:33;;;;;;;13.52;5.40;;;7.00;94.70;;;;;;4998788;28;20061;-72
2023/05/19 05:04:59;;;;;;;9.00;5.22;;;7.10;94.60;;;;;;4996641;28;20480;-72
2023/05/19 05:07:24;;;;;;;13.73;5.47;;;7.30;94.70;;;;;;5024594;28;20064;-72
2023/05/19 05:09:50;;;;;;;12.35;5.25;;;7.40;94.70;;;;;;5020713;28;20050;-72
2023/05/19 05:12:17;;;;;;;14.57;5.55;;;7.60;94.90;;;;;;5016489;28;20030;-72
2023/05/19 05:14:43;;;;;;;12.30;5.20;;;7.70;95.10;;;;;;5020545;28;20045;-71
2023/05/19 05:17:11;;;;;;;12.93;5.35;;;7.90;95.20;;;;;;5020563;28;20061;-72
2023/05/19 05:19:37;;;;;;;12.93;5.60;;;8.10;95.40;;;;;;5008762;28;20049;-72
2023/05/19 05:22:04;;;;;;;11.65;5.95;;;8.30;95.60;;;;;;5018169;28;20486;-72
2023/05/19 05:24:30;;;;;;;11.05;5.15;;;8.40;95.80;;;;;;5013200;28;20064;-72
2023/05/19 05:26:56;;;;;;;14.32;5.93;;;8.60;95.90;;;;;;5013273;28;20060;-71
2023/05/19 05:29:21;;;;;;;16.33;6.82;;;8.70;96.10;;;;;;5012293;28;20046;-72
2023/05/19 05:31:47;;;;;;;13.35;6.55;;;8.80;96.20;;;;;;5012019;28;20130;-73
2023/05/19 05:34:13;;;;;;;14.18;5.90;;;9.00;96.40;;;;;;5021575;28;20046;-73
2023/05/19 05:36:38;;;;;;;11.02;5.70;;;9.10;96.60;;;;;;5008800;28;20042;-73
2023/05/19 05:39:04;;;;;;;13.30;6.05;;;9.40;96.70;;;;;;5019896;28;20037;-73
2023/05/19 05:41:34;;;;;;;12.13;6.18;;;9.60;96.70;;;;;;5021989;28;20130;-72
2023/05/19 05:44:00;;;;;;;13.20;6.33;;;9.80;96.70;;;;;;5011951;28;20041;-73
2023/05/19 05:46:26;;;;;;;14.30;6.15;;;10.00;96.40;;;;;;5011928;28;20038;-72
2023/05/19 05:48:52;;;;;;;12.68;6.10;;;10.00;96.40;;;;;;5023286;28;20040;-72
2023/05/19 05:51:20;;;;;;;12.45;5.60;;;10.30;96.30;;;;;;5007033;28;20030;-74
2023/05/19 05:53:51;;;;;;;9.90;5.50;;;10.50;95.50;;;;;;5020574;28;20069;-73
2023/05/19 05:56:17;;;;;;;13.18;5.90;;;10.80;94.90;;;;;;5019884;28;20042;-72
2023/05/19 05:58:42;;;;;;;15.90;6.25;;;11.00;94.70;;;;;;5014840;28;20052;-73
2023/05/19 06:01:11;;;;;;;10.80;5.13;;;11.20;94.20;;;;;;5013580;28;20044;-79
2023/05/19 06:03:43;;;;;;;11.15;4.85;;;11.40;93.70;;;;;;5013131;28;20092;-72
2023/05/19 06:06:09;;;;;;;15.43;5.35;;;11.60;91.60;;;;;;5018311;28;20045;-72
2023/05/19 06:08:35;;;;;;;11.55;5.78;;;11.70;91.20;;;;;;4993673;28;20037;-73
2023/05/19 06:11:06;;;;;;;11.52;5.38;;;11.80;90.40;;;;;;5011897;28;20052;-73
2023/05/19 06:13:32;;;;;;;10.38;4.80;;;11.90;88.70;;;;;;5008815;28;20053;-73
2023/05/19 06:15:57;;;;;;;8.68;5.03;;;12.10;87.90;;;;;;5009763;28;20038;-74
2023/05/19 06:18:23;;;;;;;9.13;4.72;;;12.30;86.80;;;;;;5007892;28;20402;-74
2023/05/19 06:20:49;;;;;;;11.50;5.05;;;12.40;85.00;;;;;;5006989;28;20054;-73
2023/05/19 06:23:14;;;;;;;8.55;5.25;;;12.60;84.70;;;;;;4997572;28;20038;-73
2023/05/19 06:25:40;;;;;;;8.80;4.90;;;12.80;82.90;;;;;;5009949;28;20034;-73
2023/05/19 06:28:05;;;;;;;10.75;4.90;;;13.00;81.80;;;;;;5012411;28;20034;-76
2023/05/19 06:30:31;;;;;;;9.00;4.47;;;13.20;80.50;;;;;;5007058;28;20038;-73
2023/05/19 06:32:57;;;;;;;8.07;4.50;;;13.40;78.20;;;;;;5007007;28;20049;-73
2023/05/19 06:35:22;;;;;;;11.27;4.30;;;13.60;77.20;;;;;;5012774;28;20649;-75
2023/05/19 06:37:48;;;;;;;7.57;4.00;;;13.80;76.20;;;;;;5025626;28;20391;-73
2023/05/19 06:40:14;;;;;;;12.98;4.18;;;14.00;72.80;;;;;;5016151;28;20406;-73
2023/05/19 06:42:39;;;;;;;6.97;3.70;;;14.10;72.90;;;;;;5012787;28;20462;-72
2023/05/19 06:45:05;;;;;;;11.13;3.95;;;14.30;71.70;;;;;;5029173;28;20038;-74
2023/05/19 06:47:31;;;;;;;7.20;3.90;;;14.40;70.40;;;;;;5010110;28;20048;-73
2023/05/19 06:49:56;;;;;;;10.55;3.53;;;14.60;67.20;;;;;;5017092;28;20042;-74
2023/05/19 06:52:23;;;;;;;9.10;3.05;;;14.80;68.00;;;;;;5011059;28;20103;-73
2023/05/19 06:54:49;;;;;;;6.72;3.38;;;15.10;67.30;;;;;;5011374;28;20157;-75
2023/05/19 06:57:15;;;;;;;8.63;3.45;;;15.30;64.80;;;;;;5015204;28;20635;-76
2023/05/19 06:59:42;;;;;;;7.38;2.90;;;15.50;64.70;;;;;;5016613;28;20153;-78
2023/05/19 07:02:08;;;;;;;8.57;2.85;;;15.50;62.70;;;;;;5017810;28;20068;-74
2023/05/19 07:04:34;;;;;;;6.07;2.78;;;15.60;61.90;;;;;;5018149;28;20038;-74
2023/05/19 07:07:00;;;;;;;7.18;2.58;;;15.60;59.00;;;;;;5030839;28;20041;-81
2023/05/19 07:09:25;;;;;;;6.10;3.00;;;15.70;59.80;;;;;;5019811;28;20052;-76
2023/05/19 07:11:51;;;;;;;8.48;3.10;;;15.50;59.10;;;;;;5010647;28;20183;-74
2023/05/19 07:14:16;;;;;;;7.50;3.10;;;15.60;58.00;;;;;;5012462;28;20073;-74
2023/05/19 07:16:42;;;;;;;7.30;2.53;;;15.80;57.10;;;;;;5012044;28;20212;-78
2023/05/19 07:19:08;;;;;;;5.32;2.50;;;16.20;57.30;;;;;;5008989;28;20569;-78
2023/05/19 07:21:33;;;;;;;4.05;2.30;;;16.50;57.00;;;;;;5012498;28;20100;-75
2023/05/19 07:23:59;;;;;;;10.07;2.90;;;16.60;55.00;;;;;;5010759;28;20033;-75
2023/05/19 07:26:25;;;;;;;6.85;2.67;;;16.70;54.10;;;;;;4990646;28;20046;-75
2023/05/19 07:28:51;;;;;;;8.25;2.85;;;16.80;53.30;;;;;;5001631;28;20057;-72
2023/05/19 07:31:16;;;;;;;8.60;2.42;;;16.90;53.00;;;;;;5011215;28;20044;-75
2023/05/19 07:33:42;;;;;;;6.70;2.35;;;16.80;52.20;;;;;;5011210;28;20112;-75
2023/05/19 07:36:08;;;;;;;7.88;2.65;;;17.00;52.00;;;;;;5019709;28;20050;-74
2023/05/19 07:38:33;;;;;;;4.50;2.55;;;16.90;51.70;;;;;;5013923;28;20037;-74
2023/05/19 07:41:00;;;;;;;8.07;2.53;;;17.20;52.20;;;;;;5009104;28;20061;-75
2023/05/19 07:43:26;;;;;;;6.82;2.35;;;17.40;50.50;;;;;;5013215;28;20033;-77
2023/05/19 07:45:52;;;;;;;4.53;2.35;;;17.40;48.60;;;;;;5025340;28;20787;-75
2023/05/19 07:48:21;;;;;;;6.85;2.20;;;17.40;48.70;;;;;;4995779;28;20438;-75
2023/05/19 07:50:47;;;;;;;5.38;2.50;;;17.70;48.70;;;;;;5012904;28;20446;-75
2023/05/19 07:53:13;;;;;;;6.28;2.53;;;18.00;48.90;;;;;;5011321;28;20052;-77
2023/05/19 07:55:38;;;;;;;3.25;1.88;;;18.30;45.80;;;;;;5012882;28;20033;-77
2023/05/19 07:58:04;;;;;;;3.83;2.00;;;18.40;45.20;;;;;;5015804;28;20430;-75
2023/05/19 08:00:30;;;;;;;7.20;2.55;;;18.40;45.00;;;;;;5020409;28;20041;-76
2023/05/19 08:02:56;;;;;;;5.15;1.88;;;18.70;44.80;;;;;;5013338;28;20063;-77
2023/05/19 08:05:22;;;;;;;4.78;2.00;;;18.90;44.00;;;;;;5025459;28;20045;-80
2023/05/19 08:07:47;;;;;;;3.55;1.80;;;18.90;43.80;;;;;;5027988;28;20087;-76
2023/05/19 08:10:13;;;;;;;4.30;2.08;;;19.20;42.90;;;;;;5021928;28;20041;-76
2023/05/19 08:12:39;;;;;;;4.43;1.60;;;19.40;42.50;;;;;;5013420;28;20045;-76
2023/05/19 08:15:05;;;;;;;4.47;2.05;;;19.60;40.80;;;;;;5021910;28;20048;-75
2023/05/19 08:17:31;;;;;;;5.68;2.10;;;19.80;40.30;;;;;;5029238;28;20037;-79
2023/05/19 08:19:56;;;;;;;5.63;1.95;;;20.20;40.20;;;;;;5014462;28;20037;-76
2023/05/19 08:22:22;;;;;;;5.15;2.28;;;20.30;39.90;;;;;;5017783;28;20378;-78
2023/05/19 08:24:48;;;;;;;4.55;1.95;;;20.10;38.70;;;;;;5019365;28;20048;-72
2023/05/19 08:27:15;;;;;;;5.10;2.33;;;20.40;37.90;;;;;;5012016;28;20497;-78
2023/05/19 08:29:41;;;;;;;3.33;1.92;;;20.50;36.80;;;;;;5021075;28;20048;-76
2023/05/19 08:32:07;;;;;;;5.85;1.90;;;20.30;36.10;;;;;;5012414;28;20522;-74
2023/05/19 08:34:32;;;;;;;5.28;2.22;;;20.70;35.60;;;;;;5020331;28;20106;-76
2023/05/19 08:36:58;;;;;;;5.60;2.15;;;20.30;35.50;;;;;;5029626;28;20037;-75
2023/05/19 08:39:26;;;;;;;3.25;1.80;;;20.60;35.50;;;;;;5015665;28;20040;-76
2023/05/19 08:41:54;;;;;;;3.55;1.90;;;21.30;34.90;;;;;;5001980;28;20054;-81
2023/05/19 08:44:21;;;;;;;5.05;2.00;;;21.70;32.60;;;;;;5003461;28;20041;-79
2023/05/19 08:46:48;;;;;;;5.35;2.05;;;21.80;32.40;;;;;;5012231;28;20630;-73
2023/05/19 08:49:17;;;;;;;7.30;2.13;;;22.10;32.60;;;;;;4992824;28;20053;-78
2023/05/19 08:51:52;;;;;;;6.45;2.28;;;22.40;32.40;;;;;;5009420;28;20045;-80
2023/05/19 08:54:19;;;;;;;5.97;2.60;;;23.00;31.60;;;;;;5021101;28;20123;-76
2023/05/19 08:56:45;;;;;;;6.32;2.33;;;23.10;32.30;;;;;;5012428;28;20419;-79
2023/05/19 08:59:12;;;;;;;7.15;2.33;;;23.50;31.20;;;;;;5020958;28;20160;-75
2023/05/19 09:01:39;;;;;;;3.55;1.83;;;23.20;30.00;;;;;;5019377;28;20045;-74
2023/05/19 09:04:05;;;;;;;5.72;1.92;;;23.00;30.00;;;;;;5017554;28;20802;-74
2023/05/19 09:06:31;;;;;;;5.65;2.10;;;23.00;29.70;;;;;;5018295;28;20041;-72
2023/05/19 09:08:57;;;;;;;4.68;2.15;;;23.00;29.40;;;;;;5024138;28;20524;-73
2023/05/19 09:11:22;;;;;;;7.40;2.78;;;23.10;29.70;;;;;;5012584;28;20084;-75
2023/05/19 09:13:48;;;;;;;5.78;2.30;;;23.30;29.30;;;;;;5015142;28;20033;-78
2023/05/19 09:16:15;;;;;;;4.63;2.40;;;23.60;29.50;;;;;;5024899;28;20045;-75
2023/05/19 09:18:56;;;;;;;7.30;2.30;;;24.30;29.10;;;;;;4994570;28;20547;-75
2023/05/19 09:21:32;;;;;;;4.43;2.17;;;24.20;26.30;;;;;;5014346;28;20535;-75
2023/05/19 09:24:07;;;;;;;6.43;2.33;;;25.00;28.30;;;;;;5004841;28;20379;-76
2023/05/19 09:26:41;;;;;;;4.50;2.22;;;25.10;28.70;;;;;;5008830;28;20087;-77
2023/05/19 09:29:15;;;;;;;6.22;1.95;;;25.20;27.40;;;;;;5014710;28;20463;-75
2023/05/19 09:31:52;;;;;;;5.95;2.63;;;24.90;26.90;;;;;;4993668;28;20056;-74
2023/05/19 09:34:19;;;;;;;6.38;2.25;;;25.30;26.80;;;;;;5018721;28;21269;-76
2023/05/19 09:36:48;;;;;;;8.77;2.33;;;25.50;27.40;;;;;;5017644;28;20535;-72
2023/05/19 09:39:18;;;;;;;6.75;2.20;;;25.80;26.10;;;;;;5026101;28;20056;-74
2023/05/19 09:41:45;;;;;;;6.78;2.72;;;25.50;26.00;;;;;;5010758;28;20080;-77
2023/05/19 09:44:22;;;;;;;5.20;2.08;;;25.20;26.20;;;;;;5040064;28;20455;-73
2023/05/19 09:46:52;;;;;;;6.20;2.05;;;24.70;25.40;;;;;;5012014;28;20130;-74
2023/05/19 09:49:28;;;;;;;4.88;2.10;;;24.10;27.10;;;;;;5015682;28;20041;-76
2023/05/19 09:51:54;;;;;;;4.65;2.13;;;23.40;28.20;;;;;;5022442;28;20037;-73
2023/05/19 09:54:21;;;;;;;7.60;2.80;;;23.40;29.00;;;;;;5031222;28;20048;-74
2023/05/19 09:57:02;;;;;;;6.97;2.40;;;23.50;28.80;;;;;;5019354;28;20044;-76
2023/05/19 09:59:29;;;;;;;4.38;1.63;;;23.70;27.60;;;;;;5019304;28;20108;-73
2023/05/19 10:01:57;;;;;;;6.82;2.30;;;24.50;27.40;;;;;;5023080;28;20048;-72
2023/05/19 10:04:28;;;;;;;4.22;2.35;;;25.50;26.20;;;;;;5031954;28;20041;-75
2023/05/19 10:06:58;;;;;;;3.72;2.10;;;26.10;26.30;;;;;;5010191;28;20043;-76
2023/05/19 10:09:26;;;;;;;4.75;2.00;;;26.40;25.70;;;;;;5010144;28;20443;-75
2023/05/19 10:11:53;;;;;;;9.93;2.42;;;26.70;25.70;;;;;;5024685;28;20091;-73
2023/05/19 10:14:25;;;;;;;8.95;2.60;;;27.00;25.30;;;;;;5016369;28;20045;-75
2023/05/19 10:16:52;;;;;;;7.95;2.33;;;27.00;24.50;;;;;;5018944;28;20406;-77
2023/05/19 10:19:26;;;;;;;5.20;2.50;;;27.60;24.70;;;;;;5030880;28;20445;-75
2023/05/19 10:21:53;;;;;;;6.18;2.15;;;27.90;23.80;;;;;;5031170;28;20037;-73
2023/05/19 10:24:20;;;;;;;4.45;2.30;;;27.60;24.40;;;;;;5025479;28;20052;-75
2023/05/19 10:27:11;;;;;;;5.90;2.03;;;27.20;24.70;;;;;;5022511;28;20415;-74
2023/05/19 10:29:41;;;;;;;5.35;2.22;;;25.40;24.10;;;;;;5031924;28;20524;-74
2023/05/19 10:32:13;;;;;;;8.25;2.30;;;24.70;26.30;;;;;;5028210;28;20049;-74
2023/05/19 10:34:58;;;;;;;4.97;2.10;;;23.90;26.90;;;;;;5019711;28;20100;-73
2023/05/19 10:37:36;;;;;;;6.10;2.13;;;23.40;27.70;;;;;;5012772;28;20064;-77
2023/05/19 10:40:08;;;;;;;3.75;2.00;;;22.90;28.60;;;;;;5027440;28;20047;-74
2023/05/19 10:42:56;;;;;;;4.63;2.30;;;22.40;28.70;;;;;;5018596;28;20038;-74
2023/05/19 10:45:26;;;;;;;4.90;2.35;;;22.00;29.20;;;;;;5015587;28;20077;-73
2023/05/19 10:47:53;;;;;;;5.80;2.22;;;21.90;29.50;;;;;;5026444;28;20088;-76
2023/05/19 10:50:19;;;;;;;7.90;2.42;;;21.80;29.70;;;;;;5003521;28;20492;-72
2023/05/19 10:52:55;;;;;;;5.38;2.00;;;21.80;30.10;;;;;;5021862;28;20077;-78
2023/05/19 10:55:51;;;;;;;5.82;1.92;;;21.50;30.20;;;;;;5016120;28;20041;-73
2023/05/19 10:58:35;;;;;;;3.92;2.25;;;21.20;30.00;;;;;;5018623;28;20042;-74
2023/05/19 11:01:01;;;;;;;3.85;2.08;;;21.00;30.40;;;;;;5016148;28;20132;-74
2023/05/19 11:03:27;;;;;;;3.58;2.35;;;20.70;30.70;;;;;;4998585;28;20117;-74
2023/05/19 11:06:20;;;;;;;5.78;2.20;;;20.40;31.70;;;;;;5014372;28;20156;-73
2023/05/19 11:08:46;;;;;;;7.05;2.58;;;20.20;32.70;;;;;;5021796;28;20037;-75
2023/05/19 11:11:16;;;;;;;4.53;2.00;;;20.20;32.60;;;;;;5000167;28;20157;-72
2023/05/19 11:13:55;;;;;;;4.40;3.00;;;20.10;33.10;;;;;;5029953;28;20095;-77
2023/05/19 11:16:50;;;;;;;8.18;2.35;;;19.80;33.00;;;;;;5024947;28;20051;-72
2023/05/19 11:19:27;;;;;;;11.68;2.53;;;19.70;34.40;;;;;;5020479;28;20116;-77
2023/05/19 11:21:54;;;;;;;6.43;2.47;;;19.90;33.20;;;;;;5018130;28;20029;-74
2023/05/19 11:24:48;;;;;;;4.55;2.00;;;19.70;33.40;;;;;;5024805;28;20060;-79
2023/05/19 11:27:27;;;;;;;10.80;2.58;;;20.00;33.70;;;;;;5031280;28;20041;-72
2023/05/19 11:29:55;;;;;;;4.25;1.90;;;20.20;32.50;;;;;;5033960;28;20050;-75
2023/05/19 11:32:25;;;;;;;3.60;2.03;;;19.70;32.50;;;;;;5022782;28;20563;-72
2023/05/19 11:34:51;;;;;;;6.32;2.42;;;19.80;33.00;;;;;;5009172;28;20474;-70
2023/05/19 11:37:17;;;;;;;9.48;2.53;;;19.50;33.40;;;;;;5019895;28;20409;-70
2023/05/19 11:39:45;;;;;;;6.25;2.25;;;19.40;34.00;;;;;;5003745;28;20037;-69
2023/05/19 11:42:10;;;;;;;3.83;1.90;;;19.70;33.90;;;;;;5009242;28;20144;-71
2023/05/19 11:44:37;;;;;;;5.60;2.17;;;19.80;33.70;;;;;;5020925;28;20112;-72
2023/05/19 11:47:07;;;;;;;6.38;1.95;;;19.90;33.60;;;;;;5031655;28;20539;-70
2023/05/19 11:49:32;;;;;;;5.80;2.30;;;20.10;33.70;;;;;;5022231;28;20532;-70
2023/05/19 11:52:02;;;;;;;4.85;2.05;;;20.30;33.50;;;;;;5012126;28;20041;-73
2023/05/19 11:54:32;;;;;;;6.40;1.92;;;20.60;32.90;;;;;;5013973;28;20103;-70
2023/05/19 11:57:02;;;;;;;3.70;2.28;;;20.90;33.00;;;;;;5030848;28;20124;-73
2023/05/19 11:59:32;;;;;;;5.50;1.92;;;21.20;32.50;;;;;;5017814;28;20041;-73
2023/05/19 12:02:02;;;;;;;;;;;21.00;32.00;;;;;;5016546;28;20125;-72
2023/05/19 12:04:29;;;;;;;7.22;2.13;;;20.70;31.60;;;;;;5027815;28;19952;-71
2023/05/19 12:06:55;;;;;;;5.72;1.98;;;20.50;32.30;;;;;;5029769;28;20059;-71
2023/05/19 12:09:24;;;;;;;5.50;1.70;;;20.40;32.90;;;;;;5017788;28;20466;-72
2023/05/19 12:11:51;;;;;;;6.18;2.38;;;20.60;32.80;;;;;;5026035;28;20084;-69
2023/05/19 12:14:17;;;;;;;3.60;1.55;;;20.90;31.80;;;;;;4997143;28;20042;-73
2023/05/19 12:16:42;;;;;;;6.38;2.17;;;20.70;31.00;;;;;;5008052;28;20118;-72
2023/05/19 12:19:08;;;;;;;3.97;1.90;;;20.80;30.80;;;;;;5020854;28;20046;-70
2023/05/19 12:21:34;;;;;;;6.18;1.90;;;20.90;30.80;;;;;;5024434;28;20097;-72
2023/05/19 12:24:01;;;;;;;5.18;2.08;;;21.20;31.00;;;;;;5027014;28;20410;-73
2023/05/19 12:26:30;;;;;;;5.47;2.28;;;21.60;30.50;;;;;;5007630;28;20041;-69
2023/05/19 12:28:57;;;;;;;3.53;1.80;;;22.30;30.00;;;;;;5009688;28;20033;-71
2023/05/19 12:31:22;;;;;;;5.20;2.20;;;23.10;29.30;;;;;;5029136;28;20041;-73
2023/05/19 12:33:51;;;;;;;7.07;2.00;;;24.50;28.10;;;;;;5027575;28;20115;-72
2023/05/19 12:36:18;;;;;;;4.85;2.25;;;25.20;27.90;;;;;;5004604;28;20038;-70
2023/05/19 12:38:44;;;;;;;6.50;2.20;;;25.70;27.20;;;;;;5021027;28;20065;-69
2023/05/19 12:41:13;;;;;;;5.93;2.03;;;25.30;26.40;;;;;;5026383;28;20103;-75
2023/05/19 12:43:39;;;;;;;5.35;1.85;;;25.20;26.50;;;;;;5028651;28;20033;-74
2023/05/19 12:46:12;;;;;;;6.28;2.00;;;25.70;26.40;;;;;;5012123;28;20486;-70
2023/05/19 12:48:45;;;;;;;7.40;1.67;;;25.80;25.20;;;;;;5027591;28;20057;-74
2023/05/19 12:51:18;;;;;;;7.72;2.10;;;25.70;24.80;;;;;;5026683;28;20042;-73
2023/05/19 12:53:44;;;;;;;4.28;1.95;;;24.80;25.30;;;;;;5028897;28;20053;-69